sensor_id;sensor_type;location;lat;lon;timestamp;temperature;humidity
23748;DHT22;12054;53.662;10.126;2023-05-25T00:02:04;13.60;99.90
23748;DHT22;12054;53.662;10.126;2023-05-25T00:04:30;13.60;99.90
23748;DHT22;12054;53.662;10.126;2023-05-25T00:06:59;13.50;99.90
23748;DHT22;12054;53.662;10.126;2023-05-25T00:09:24;13.50;99.90
23748;DHT22;12054;53.662;10.126;2023-05-25T00:11:50;13.50;99.90
23748;DHT22;12054;53.662;10.126;2023-05-25T00:14:21;13.50;99.90
23748;DHT22;12054;53.662;10.126;2023-05-25T00:16:47;13.40;99.90
23748;DHT22;12054;53.662;10.126;2023-05-25T00:19:13;13.40;99.90
23748;DHT22;12054;53.662;10.126;2023-05-25T00:21:39;13.30;99.90
23748;DHT22;12054;53.662;10.126;2023-05-25T00:24:06;13.30;99.90
23748;DHT22;12054;53.662;10.126;2023-05-25T00:26:32;13.30;99.90
23748;DHT22;12054;53.662;10.126;2023-05-25T00:29:17;13.30;99.90
23748;DHT22;12054;53.662;10.126;2023-05-25T00:31:42;13.30;99.90
23748;DHT22;12054;53.662;10.126;2023-05-25T00:34:08;13.20;99.90
23748;DHT22;12054;53.662;10.126;2023-05-25T00:36:33;13.20;99.90
23748;DHT22;12054;53.662;10.126;2023-05-25T00:38:59;13.10;99.90
23748;DHT22;12054;53.662;10.126;2023-05-25T00:44:36;13.10;99.90
23748;DHT22;12054;53.662;10.126;2023-05-25T00:47:01;13.10;99.90
23748;DHT22;12054;53.662;10.126;2023-05-25T00:49:30;13.00;99.90
23748;DHT22;12054;53.662;10.126;2023-05-25T00:51:56;13.00;99.90
23748;DHT22;12054;53.662;10.126;2023-05-25T00:54:22;13.00;99.90
23748;DHT22;12054;53.662;10.126;2023-05-25T00:57:00;13.00;99.90
23748;DHT22;12054;53.662;10.126;2023-05-25T00:59:40;12.90;99.90
23748;DHT22;12054;53.662;10.126;2023-05-25T01:02:08;12.90;99.90
23748;DHT22;12054;53.662;10.126;2023-05-25T01:04:39;12.90;99.90
23748;DHT22;12054;53.662;10.126;2023-05-25T01:07:07;12.80;99.90
23748;DHT22;12054;53.662;10.126;2023-05-25T01:09:38;12.80;99.90
23748;DHT22;12054;53.662;10.126;2023-05-25T01:12:07;12.80;99.90
23748;DHT22;12054;53.662;10.126;2023-05-25T01:14:34;12.70;99.90
23748;DHT22;12054;53.662;10.126;2023-05-25T01:17:01;12.70;99.90
23748;DHT22;12054;53.662;10.126;2023-05-25T01:19:27;12.70;99.90
23748;DHT22;12054;53.662;10.126;2023-05-25T01:22:20;12.70;99.90
23748;DHT22;12054;53.662;10.126;2023-05-25T01:24:58;12.60;99.90
23748;DHT22;12054;53.662;10.126;2023-05-25T01:27:32;12.60;99.90
23748;DHT22;12054;53.662;10.126;2023-05-25T01:30:19;12.50;99.90
23748;DHT22;12054;53.662;10.126;2023-05-25T01:32:47;12.50;99.90
23748;DHT22;12054;53.662;10.126;2023-05-25T01:35:14;12.50;99.90
23748;DHT22;12054;53.662;10.126;2023-05-25T01:37:48;12.50;99.90
23748;DHT22;12054;53.662;10.126;2023-05-25T01:40:14;12.50;99.90
23748;DHT22;12054;53.662;10.126;2023-05-25T01:42:40;12.40;99.90
23748;DHT22;12054;53.662;10.126;2023-05-25T01:45:07;12.40;99.90
23748;DHT22;12054;53.662;10.126;2023-05-25T01:50:21;12.40;99.90
23748;DHT22;12054;53.662;10.126;2023-05-25T01:52:58;12.30;99.90
23748;DHT22;12054;53.662;10.126;2023-05-25T01:55:28;12.30;99.90
23748;DHT22;12054;53.662;10.126;2023-05-25T01:57:55;12.30;99.90
23748;DHT22;12054;53.662;10.126;2023-05-25T02:00:24;12.20;99.90
23748;DHT22;12054;53.662;10.126;2023-05-25T02:02:51;12.20;99.90
23748;DHT22;12054;53.662;10.126;2023-05-25T02:05:19;12.20;99.90
23748;DHT22;12054;53.662;10.126;2023-05-25T02:07:45;12.20;99.90
23748;DHT22;12054;53.662;10.126;2023-05-25T02:10:11;12.20;99.90
23748;DHT22;12054;53.662;10.126;2023-05-25T02:12:36;12.10;99.90
23748;DHT22;12054;53.662;10.126;2023-05-25T02:15:02;12.10;99.90
23748;DHT22;12054;53.662;10.126;2023-05-25T02:17:28;12.10;99.90
23748;DHT22;12054;53.662;10.126;2023-05-25T02:19:54;12.00;99.90
23748;DHT22;12054;53.662;10.126;2023-05-25T02:22:20;12.00;99.90
23748;DHT22;12054;53.662;10.126;2023-05-25T02:24:46;12.00;99.90
23748;DHT22;12054;53.662;10.126;2023-05-25T02:27:12;12.00;99.90
23748;DHT22;12054;53.662;10.126;2023-05-25T02:29:38;12.00;99.90
23748;DHT22;12054;53.662;10.126;2023-05-25T02:32:04;12.00;99.90
23748;DHT22;12054;53.662;10.126;2023-05-25T02:34:30;11.90;99.90
23748;DHT22;12054;53.662;10.126;2023-05-25T02:36:55;11.90;99.90
23748;DHT22;12054;53.662;10.126;2023-05-25T02:39:21;11.90;99.90
23748;DHT22;12054;53.662;10.126;2023-05-25T02:41:46;11.90;99.90
23748;DHT22;12054;53.662;10.126;2023-05-25T02:44:12;11.90;99.90
23748;DHT22;12054;53.662;10.126;2023-05-25T02:46:37;11.80;99.90
23748;DHT22;12054;53.662;10.126;2023-05-25T02:49:03;11.80;99.90
23748;DHT22;12054;53.662;10.126;2023-05-25T02:51:29;11.80;99.90
23748;DHT22;12054;53.662;10.126;2023-05-25T02:53:54;11.80;99.90
23748;DHT22;12054;53.662;10.126;2023-05-25T02:56:20;11.70;99.90
23748;DHT22;12054;53.662;10.126;2023-05-25T02:58:48;11.70;99.90
23748;DHT22;12054;53.662;10.126;2023-05-25T03:01:13;11.70;99.90
23748;DHT22;12054;53.662;10.126;2023-05-25T03:03:45;11.70;99.90
23748;DHT22;12054;53.662;10.126;2023-05-25T03:06:17;11.70;99.90
23748;DHT22;12054;53.662;10.126;2023-05-25T03:08:43;11.60;99.90
23748;DHT22;12054;53.662;10.126;2023-05-25T03:11:08;11.60;99.90
23748;DHT22;12054;53.662;10.126;2023-05-25T03:13:34;11.60;99.90
23748;DHT22;12054;53.662;10.126;2023-05-25T03:16:00;11.60;99.90
23748;DHT22;12054;53.662;10.126;2023-05-25T03:18:26;11.60;99.90
23748;DHT22;12054;53.662;10.126;2023-05-25T03:20:51;11.50;99.90
23748;DHT22;12054;53.662;10.126;2023-05-25T03:23:17;11.50;99.90
23748;DHT22;12054;53.662;10.126;2023-05-25T03:25:42;11.50;99.90
23748;DHT22;12054;53.662;10.126;2023-05-25T03:28:08;11.50;99.90
23748;DHT22;12054;53.662;10.126;2023-05-25T03:30:33;11.50;99.90
23748;DHT22;12054;53.662;10.126;2023-05-25T03:32:59;11.50;99.90
23748;DHT22;12054;53.662;10.126;2023-05-25T03:35:24;11.50;99.90
23748;DHT22;12054;53.662;10.126;2023-05-25T03:37:50;11.50;99.90
23748;DHT22;12054;53.662;10.126;2023-05-25T03:40:15;11.50;99.90
23748;DHT22;12054;53.662;10.126;2023-05-25T03:42:41;11.40;99.90
23748;DHT22;12054;53.662;10.126;2023-05-25T03:45:07;11.40;99.90
23748;DHT22;12054;53.662;10.126;2023-05-25T03:47:33;11.40;99.90
23748;DHT22;12054;53.662;10.126;2023-05-25T03:49:59;11.40;99.90
23748;DHT22;12054;53.662;10.126;2023-05-25T03:52:25;11.40;99.90
23748;DHT22;12054;53.662;10.126;2023-05-25T03:54:50;11.40;99.90
23748;DHT22;12054;53.662;10.126;2023-05-25T03:57:16;11.40;99.90
23748;DHT22;12054;53.662;10.126;2023-05-25T03:59:41;11.40;99.90
23748;DHT22;12054;53.662;10.126;2023-05-25T04:02:06;11.40;99.90
23748;DHT22;12054;53.662;10.126;2023-05-25T04:04:32;11.40;99.90
23748;DHT22;12054;53.662;10.126;2023-05-25T04:06:57;11.30;99.90
23748;DHT22;12054;53.662;10.126;2023-05-25T04:09:23;11.30;99.90
23748;DHT22;12054;53.662;10.126;2023-05-25T04:11:49;11.30;99.90
23748;DHT22;12054;53.662;10.126;2023-05-25T04:14:15;11.30;99.90
23748;DHT22;12054;53.662;10.126;2023-05-25T04:16:40;11.20;99.90
23748;DHT22;12054;53.662;10.126;2023-05-25T04:19:06;11.20;99.90
23748;DHT22;12054;53.662;10.126;2023-05-25T04:21:32;11.20;99.90
23748;DHT22;12054;53.662;10.126;2023-05-25T04:23:57;11.20;99.90
23748;DHT22;12054;53.662;10.126;2023-05-25T04:26:23;11.20;99.90
23748;DHT22;12054;53.662;10.126;2023-05-25T04:28:51;11.20;99.90
23748;DHT22;12054;53.662;10.126;2023-05-25T04:31:19;11.20;99.90
23748;DHT22;12054;53.662;10.126;2023-05-25T04:33:44;11.20;99.90
23748;DHT22;12054;53.662;10.126;2023-05-25T04:36:10;11.20;99.90
23748;DHT22;12054;53.662;10.126;2023-05-25T04:38:35;11.20;99.90
23748;DHT22;12054;53.662;10.126;2023-05-25T04:41:01;11.20;99.90
23748;DHT22;12054;53.662;10.126;2023-05-25T04:43:27;11.30;99.90
23748;DHT22;12054;53.662;10.126;2023-05-25T04:45:54;11.30;99.90
23748;DHT22;12054;53.662;10.126;2023-05-25T04:48:20;11.30;99.90
23748;DHT22;12054;53.662;10.126;2023-05-25T04:50:47;11.30;99.90
23748;DHT22;12054;53.662;10.126;2023-05-25T04:53:12;11.30;99.90
23748;DHT22;12054;53.662;10.126;2023-05-25T04:55:38;11.30;99.90
23748;DHT22;12054;53.662;10.126;2023-05-25T04:58:04;11.30;99.90
23748;DHT22;12054;53.662;10.126;2023-05-25T05:00:30;11.40;99.90
23748;DHT22;12054;53.662;10.126;2023-05-25T05:02:56;11.40;99.90
23748;DHT22;12054;53.662;10.126;2023-05-25T05:05:23;11.40;99.90
23748;DHT22;12054;53.662;10.126;2023-05-25T05:07:51;11.40;99.90
23748;DHT22;12054;53.662;10.126;2023-05-25T05:10:22;11.50;99.90
23748;DHT22;12054;53.662;10.126;2023-05-25T05:12:47;11.50;99.90
23748;DHT22;12054;53.662;10.126;2023-05-25T05:15:16;11.50;99.90
23748;DHT22;12054;53.662;10.126;2023-05-25T05:18:00;11.50;99.90
23748;DHT22;12054;53.662;10.126;2023-05-25T05:20:28;11.60;99.90
23748;DHT22;12054;53.662;10.126;2023-05-25T05:22:54;11.60;99.90
23748;DHT22;12054;53.662;10.126;2023-05-25T05:25:19;11.60;99.90
23748;DHT22;12054;53.662;10.126;2023-05-25T05:27:45;11.70;99.90
23748;DHT22;12054;53.662;10.126;2023-05-25T05:30:11;11.70;99.90
23748;DHT22;12054;53.662;10.126;2023-05-25T05:32:36;11.70;99.90
23748;DHT22;12054;53.662;10.126;2023-05-25T05:35:01;11.70;99.90
23748;DHT22;12054;53.662;10.126;2023-05-25T05:37:29;11.80;99.90
23748;DHT22;12054;53.662;10.126;2023-05-25T05:39:55;11.80;99.90
23748;DHT22;12054;53.662;10.126;2023-05-25T05:42:20;11.80;99.90
23748;DHT22;12054;53.662;10.126;2023-05-25T05:44:46;11.90;99.90
23748;DHT22;12054;53.662;10.126;2023-05-25T05:47:11;11.90;99.90
23748;DHT22;12054;53.662;10.126;2023-05-25T05:49:37;11.90;99.90
23748;DHT22;12054;53.662;10.126;2023-05-25T05:52:08;11.90;99.90
23748;DHT22;12054;53.662;10.126;2023-05-25T05:54:34;11.90;99.90
23748;DHT22;12054;53.662;10.126;2023-05-25T05:57:09;12.00;99.90
23748;DHT22;12054;53.662;10.126;2023-05-25T05:59:34;12.00;99.90
23748;DHT22;12054;53.662;10.126;2023-05-25T06:02:00;12.00;99.90
23748;DHT22;12054;53.662;10.126;2023-05-25T06:04:25;12.00;99.90
23748;DHT22;12054;53.662;10.126;2023-05-25T06:06:53;12.10;99.90
23748;DHT22;12054;53.662;10.126;2023-05-25T06:09:29;12.10;99.90
23748;DHT22;12054;53.662;10.126;2023-05-25T06:11:55;12.10;99.90
23748;DHT22;12054;53.662;10.126;2023-05-25T06:14:20;12.10;99.90
23748;DHT22;12054;53.662;10.126;2023-05-25T06:16:46;12.10;99.90
23748;DHT22;12054;53.662;10.126;2023-05-25T06:19:11;12.20;99.90
23748;DHT22;12054;53.662;10.126;2023-05-25T06:21:38;12.20;99.90
23748;DHT22;12054;53.662;10.126;2023-05-25T06:24:04;12.20;99.90
23748;DHT22;12054;53.662;10.126;2023-05-25T06:26:30;12.20;99.90
23748;DHT22;12054;53.662;10.126;2023-05-25T06:28:56;12.30;99.90
23748;DHT22;12054;53.662;10.126;2023-05-25T06:34:34;12.40;99.90
23748;DHT22;12054;53.662;10.126;2023-05-25T06:37:01;12.40;99.90
23748;DHT22;12054;53.662;10.126;2023-05-25T06:39:26;12.50;99.90
23748;DHT22;12054;53.662;10.126;2023-05-25T06:41:52;12.50;99.90
23748;DHT22;12054;53.662;10.126;2023-05-25T06:44:17;12.50;99.90
23748;DHT22;12054;53.662;10.126;2023-05-25T06:46:43;12.60;99.90
23748;DHT22;12054;53.662;10.126;2023-05-25T06:49:08;12.70;99.90
23748;DHT22;12054;53.662;10.126;2023-05-25T06:51:34;12.70;99.90
23748;DHT22;12054;53.662;10.126;2023-05-25T06:53:59;12.80;99.90
23748;DHT22;12054;53.662;10.126;2023-05-25T06:56:25;12.90;99.90
23748;DHT22;12054;53.662;10.126;2023-05-25T06:58:50;13.00;99.90
23748;DHT22;12054;53.662;10.126;2023-05-25T07:01:16;13.10;99.90
23748;DHT22;12054;53.662;10.126;2023-05-25T07:03:42;13.20;99.90
23748;DHT22;12054;53.662;10.126;2023-05-25T07:06:08;13.30;99.90
23748;DHT22;12054;53.662;10.126;2023-05-25T07:08:33;13.40;99.90
23748;DHT22;12054;53.662;10.126;2023-05-25T07:10:59;13.50;99.90
23748;DHT22;12054;53.662;10.126;2023-05-25T07:13:24;13.60;99.90
23748;DHT22;12054;53.662;10.126;2023-05-25T07:15:50;13.80;99.90
23748;DHT22;12054;53.662;10.126;2023-05-25T07:18:17;14.00;99.90
23748;DHT22;12054;53.662;10.126;2023-05-25T07:20:43;14.20;99.90
23748;DHT22;12054;53.662;10.126;2023-05-25T07:23:10;14.30;99.90
23748;DHT22;12054;53.662;10.126;2023-05-25T07:25:36;14.50;99.90
23748;DHT22;12054;53.662;10.126;2023-05-25T07:28:02;14.60;99.90
23748;DHT22;12054;53.662;10.126;2023-05-25T07:30:28;14.80;99.90
23748;DHT22;12054;53.662;10.126;2023-05-25T07:32:53;14.90;99.90
23748;DHT22;12054;53.662;10.126;2023-05-25T07:35:19;15.00;99.90
23748;DHT22;12054;53.662;10.126;2023-05-25T07:37:45;15.20;99.90
23748;DHT22;12054;53.662;10.126;2023-05-25T07:40:10;15.40;99.90
23748;DHT22;12054;53.662;10.126;2023-05-25T07:42:36;15.60;99.90
23748;DHT22;12054;53.662;10.126;2023-05-25T07:45:01;15.80;99.90
23748;DHT22;12054;53.662;10.126;2023-05-25T07:47:27;16.00;99.90
23748;DHT22;12054;53.662;10.126;2023-05-25T07:49:54;16.10;99.90
23748;DHT22;12054;53.662;10.126;2023-05-25T07:52:20;16.30;99.90
23748;DHT22;12054;53.662;10.126;2023-05-25T07:54:45;16.40;99.90
23748;DHT22;12054;53.662;10.126;2023-05-25T07:59:38;16.50;99.90
23748;DHT22;12054;53.662;10.126;2023-05-25T08:02:03;16.70;99.90
23748;DHT22;12054;53.662;10.126;2023-05-25T08:04:29;16.80;99.90
23748;DHT22;12054;53.662;10.126;2023-05-25T08:06:55;17.00;99.90
23748;DHT22;12054;53.662;10.126;2023-05-25T08:09:21;17.10;99.90
23748;DHT22;12054;53.662;10.126;2023-05-25T08:11:47;17.20;99.90
23748;DHT22;12054;53.662;10.126;2023-05-25T08:14:12;17.30;99.90
23748;DHT22;12054;53.662;10.126;2023-05-25T08:16:38;17.50;99.90
23748;DHT22;12054;53.662;10.126;2023-05-25T08:19:03;17.60;99.90
23748;DHT22;12054;53.662;10.126;2023-05-25T08:21:29;17.70;99.90
23748;DHT22;12054;53.662;10.126;2023-05-25T08:23:54;17.80;99.90
23748;DHT22;12054;53.662;10.126;2023-05-25T08:26:20;17.90;99.90
23748;DHT22;12054;53.662;10.126;2023-05-25T08:28:47;18.00;99.90
23748;DHT22;12054;53.662;10.126;2023-05-25T08:31:12;18.10;99.90
23748;DHT22;12054;53.662;10.126;2023-05-25T08:33:38;18.20;99.90
23748;DHT22;12054;53.662;10.126;2023-05-25T08:36:04;18.20;99.90
23748;DHT22;12054;53.662;10.126;2023-05-25T08:38:29;18.30;99.90
23748;DHT22;12054;53.662;10.126;2023-05-25T08:41:05;18.40;99.90
23748;DHT22;12054;53.662;10.126;2023-05-25T08:43:32;18.50;99.90
23748;DHT22;12054;53.662;10.126;2023-05-25T08:46:04;18.70;99.90
23748;DHT22;12054;53.662;10.126;2023-05-25T08:48:32;18.80;99.90
23748;DHT22;12054;53.662;10.126;2023-05-25T08:51:05;18.90;99.90
23748;DHT22;12054;53.662;10.126;2023-05-25T08:53:38;19.00;99.90
23748;DHT22;12054;53.662;10.126;2023-05-25T08:56:16;19.10;99.90
23748;DHT22;12054;53.662;10.126;2023-05-25T08:59:25;19.20;99.90
23748;DHT22;12054;53.662;10.126;2023-05-25T09:02:15;19.30;99.90
23748;DHT22;12054;53.662;10.126;2023-05-25T09:04:43;19.30;99.90
23748;DHT22;12054;53.662;10.126;2023-05-25T09:07:09;19.30;99.90
23748;DHT22;12054;53.662;10.126;2023-05-25T09:09:35;19.30;99.90
23748;DHT22;12054;53.662;10.126;2023-05-25T09:12:04;19.40;99.80
23748;DHT22;12054;53.662;10.126;2023-05-25T09:14:30;19.50;99.50
23748;DHT22;12054;53.662;10.126;2023-05-25T09:16:57;19.50;99.10
23748;DHT22;12054;53.662;10.126;2023-05-25T09:19:22;19.60;99.10
23748;DHT22;12054;53.662;10.126;2023-05-25T09:21:48;19.70;98.70
23748;DHT22;12054;53.662;10.126;2023-05-25T09:24:14;19.80;98.60
23748;DHT22;12054;53.662;10.126;2023-05-25T09:26:40;19.90;98.60
23748;DHT22;12054;53.662;10.126;2023-05-25T09:29:08;19.90;98.70
23748;DHT22;12054;53.662;10.126;2023-05-25T09:31:34;20.10;98.20
23748;DHT22;12054;53.662;10.126;2023-05-25T09:34:00;20.20;97.50
23748;DHT22;12054;53.662;10.126;2023-05-25T09:36:26;20.30;97.40
23748;DHT22;12054;53.662;10.126;2023-05-25T09:38:52;20.30;97.10
23748;DHT22;12054;53.662;10.126;2023-05-25T09:41:18;20.40;96.90
23748;DHT22;12054;53.662;10.126;2023-05-25T09:43:46;20.50;96.80
23748;DHT22;12054;53.662;10.126;2023-05-25T09:46:12;20.60;96.60
23748;DHT22;12054;53.662;10.126;2023-05-25T09:48:38;20.70;96.30
23748;DHT22;12054;53.662;10.126;2023-05-25T09:51:05;20.70;95.80
23748;DHT22;12054;53.662;10.126;2023-05-25T09:53:33;20.70;95.50
23748;DHT22;12054;53.662;10.126;2023-05-25T09:55:59;20.90;95.30
23748;DHT22;12054;53.662;10.126;2023-05-25T09:58:25;20.90;94.90
23748;DHT22;12054;53.662;10.126;2023-05-25T10:00:52;21.00;95.00
23748;DHT22;12054;53.662;10.126;2023-05-25T10:03:18;21.00;95.40
23748;DHT22;12054;53.662;10.126;2023-05-25T10:05:47;21.10;94.60
23748;DHT22;12054;53.662;10.126;2023-05-25T10:08:13;21.20;94.30
23748;DHT22;12054;53.662;10.126;2023-05-25T10:10:39;21.20;94.00
23748;DHT22;12054;53.662;10.126;2023-05-25T10:13:07;21.30;93.60
23748;DHT22;12054;53.662;10.126;2023-05-25T10:15:35;21.40;93.70
23748;DHT22;12054;53.662;10.126;2023-05-25T10:18:02;21.50;93.30
23748;DHT22;12054;53.662;10.126;2023-05-25T10:20:30;21.60;93.30
23748;DHT22;12054;53.662;10.126;2023-05-25T10:22:59;21.60;93.30
23748;DHT22;12054;53.662;10.126;2023-05-25T10:25:35;21.70;93.10
23748;DHT22;12054;53.662;10.126;2023-05-25T10:28:07;21.80;93.20
23748;DHT22;12054;53.662;10.126;2023-05-25T10:30:38;21.90;93.20
23748;DHT22;12054;53.662;10.126;2023-05-25T10:33:04;21.90;93.10
23748;DHT22;12054;53.662;10.126;2023-05-25T10:35:30;21.90;92.50
23748;DHT22;12054;53.662;10.126;2023-05-25T10:37:55;21.90;92.20
23748;DHT22;12054;53.662;10.126;2023-05-25T10:40:23;22.00;91.80
23748;DHT22;12054;53.662;10.126;2023-05-25T10:42:49;22.00;91.70
23748;DHT22;12054;53.662;10.126;2023-05-25T10:45:16;22.00;91.80
23748;DHT22;12054;53.662;10.126;2023-05-25T10:47:42;21.90;91.40
23748;DHT22;12054;53.662;10.126;2023-05-25T10:50:22;21.90;91.20
23748;DHT22;12054;53.662;10.126;2023-05-25T10:52:59;22.00;91.00
23748;DHT22;12054;53.662;10.126;2023-05-25T10:55:26;22.10;90.70
23748;DHT22;12054;53.662;10.126;2023-05-25T10:58:22;22.10;90.70
23748;DHT22;12054;53.662;10.126;2023-05-25T11:00:59;22.30;90.20
23748;DHT22;12054;53.662;10.126;2023-05-25T11:06:16;22.40;89.90
23748;DHT22;12054;53.662;10.126;2023-05-25T11:08:58;22.40;89.60
23748;DHT22;12054;53.662;10.126;2023-05-25T11:17:10;22.60;89.00
23748;DHT22;12054;53.662;10.126;2023-05-25T11:19:45;22.60;89.40
23748;DHT22;12054;53.662;10.126;2023-05-25T11:22:17;22.60;88.90
23748;DHT22;12054;53.662;10.126;2023-05-25T11:24:49;22.60;88.60
23748;DHT22;12054;53.662;10.126;2023-05-25T11:27:14;22.60;88.10
23748;DHT22;12054;53.662;10.126;2023-05-25T11:29:40;22.70;87.90
23748;DHT22;12054;53.662;10.126;2023-05-25T11:32:11;22.80;87.00
23748;DHT22;12054;53.662;10.126;2023-05-25T11:34:38;22.80;86.10
23748;DHT22;12054;53.662;10.126;2023-05-25T11:37:05;22.90;85.50
23748;DHT22;12054;53.662;10.126;2023-05-25T11:39:33;22.90;84.80
23748;DHT22;12054;53.662;10.126;2023-05-25T11:42:04;23.00;84.30
23748;DHT22;12054;53.662;10.126;2023-05-25T11:44:33;23.00;83.80
23748;DHT22;12054;53.662;10.126;2023-05-25T11:47:04;23.00;83.40
23748;DHT22;12054;53.662;10.126;2023-05-25T11:49:32;23.00;82.30
23748;DHT22;12054;53.662;10.126;2023-05-25T11:51:58;23.00;82.10
23748;DHT22;12054;53.662;10.126;2023-05-25T11:54:28;23.00;81.70
23748;DHT22;12054;53.662;10.126;2023-05-25T11:56:54;23.10;81.20
23748;DHT22;12054;53.662;10.126;2023-05-25T11:59:22;23.20;81.30
23748;DHT22;12054;53.662;10.126;2023-05-25T12:02:01;23.30;81.40
23748;DHT22;12054;53.662;10.126;2023-05-25T12:04:28;23.40;81.60
23748;DHT22;12054;53.662;10.126;2023-05-25T12:07:03;23.40;80.30
23748;DHT22;12054;53.662;10.126;2023-05-25T12:09:29;23.50;79.30
23748;DHT22;12054;53.662;10.126;2023-05-25T12:11:56;23.60;79.40
23748;DHT22;12054;53.662;10.126;2023-05-25T12:14:21;23.70;79.20
23748;DHT22;12054;53.662;10.126;2023-05-25T12:16:48;23.60;78.70
23748;DHT22;12054;53.662;10.126;2023-05-25T12:19:15;23.60;79.00
23748;DHT22;12054;53.662;10.126;2023-05-25T12:21:41;23.70;78.80
23748;DHT22;12054;53.662;10.126;2023-05-25T12:24:08;23.70;78.00
23748;DHT22;12054;53.662;10.126;2023-05-25T12:26:34;23.70;78.30
23748;DHT22;12054;53.662;10.126;2023-05-25T12:29:04;23.80;79.10
23748;DHT22;12054;53.662;10.126;2023-05-25T12:31:32;23.80;78.70
23748;DHT22;12054;53.662;10.126;2023-05-25T12:34:12;23.90;78.20
23748;DHT22;12054;53.662;10.126;2023-05-25T12:39:10;24.10;77.80
23748;DHT22;12054;53.662;10.126;2023-05-25T12:41:52;24.10;78.00
23748;DHT22;12054;53.662;10.126;2023-05-25T12:44:31;24.10;77.10
23748;DHT22;12054;53.662;10.126;2023-05-25T12:47:14;24.10;75.50
23748;DHT22;12054;53.662;10.126;2023-05-25T12:49:42;24.30;74.60
23748;DHT22;12054;53.662;10.126;2023-05-25T12:52:10;24.30;74.50
23748;DHT22;12054;53.662;10.126;2023-05-25T12:57:12;24.30;73.90
23748;DHT22;12054;53.662;10.126;2023-05-25T12:59:43;24.30;73.80
23748;DHT22;12054;53.662;10.126;2023-05-25T13:02:09;24.40;74.00
23748;DHT22;12054;53.662;10.126;2023-05-25T13:04:36;24.40;72.80
23748;DHT22;12054;53.662;10.126;2023-05-25T13:07:03;24.30;72.50
23748;DHT22;12054;53.662;10.126;2023-05-25T13:09:29;24.30;72.30
23748;DHT22;12054;53.662;10.126;2023-05-25T13:11:56;24.30;73.00
23748;DHT22;12054;53.662;10.126;2023-05-25T13:14:25;24.30;73.60
23748;DHT22;12054;53.662;10.126;2023-05-25T13:16:51;24.30;74.10
23748;DHT22;12054;53.662;10.126;2023-05-25T13:19:20;24.30;74.50
23748;DHT22;12054;53.662;10.126;2023-05-25T13:21:46;24.30;74.10
23748;DHT22;12054;53.662;10.126;2023-05-25T13:24:14;24.40;73.50
23748;DHT22;12054;53.662;10.126;2023-05-25T13:26:41;24.40;72.80
23748;DHT22;12054;53.662;10.126;2023-05-25T13:29:08;24.50;72.40
23748;DHT22;12054;53.662;10.126;2023-05-25T13:31:33;24.50;72.40
23748;DHT22;12054;53.662;10.126;2023-05-25T13:33:59;24.50;72.70
23748;DHT22;12054;53.662;10.126;2023-05-25T13:36:24;24.50;72.50
23748;DHT22;12054;53.662;10.126;2023-05-25T13:38:50;24.50;72.10
23748;DHT22;12054;53.662;10.126;2023-05-25T13:41:16;24.50;72.10
23748;DHT22;12054;53.662;10.126;2023-05-25T13:43:42;24.50;72.40
23748;DHT22;12054;53.662;10.126;2023-05-25T13:46:08;24.50;72.80
23748;DHT22;12054;53.662;10.126;2023-05-25T13:48:33;24.50;72.70
23748;DHT22;12054;53.662;10.126;2023-05-25T13:50:59;24.40;72.20
23748;DHT22;12054;53.662;10.126;2023-05-25T13:53:24;24.40;71.10
23748;DHT22;12054;53.662;10.126;2023-05-25T13:55:50;24.30;70.00
23748;DHT22;12054;53.662;10.126;2023-05-25T13:58:16;24.30;69.90
23748;DHT22;12054;53.662;10.126;2023-05-25T14:00:41;24.30;70.20
23748;DHT22;12054;53.662;10.126;2023-05-25T14:03:07;24.30;70.40
23748;DHT22;12054;53.662;10.126;2023-05-25T14:05:33;24.10;70.60
23748;DHT22;12054;53.662;10.126;2023-05-25T14:07:59;24.10;70.90
23748;DHT22;12054;53.662;10.126;2023-05-25T14:10:37;24.10;70.00
23748;DHT22;12054;53.662;10.126;2023-05-25T14:13:03;24.00;69.90
23748;DHT22;12054;53.662;10.126;2023-05-25T14:15:28;24.10;70.00
23748;DHT22;12054;53.662;10.126;2023-05-25T14:17:54;24.10;69.80
23748;DHT22;12054;53.662;10.126;2023-05-25T14:20:19;24.10;69.30
23748;DHT22;12054;53.662;10.126;2023-05-25T14:22:50;24.00;69.60
23748;DHT22;12054;53.662;10.126;2023-05-25T14:25:16;24.00;69.80
23748;DHT22;12054;53.662;10.126;2023-05-25T14:27:41;24.00;70.30
23748;DHT22;12054;53.662;10.126;2023-05-25T14:30:07;23.90;69.90
23748;DHT22;12054;53.662;10.126;2023-05-25T14:32:33;23.80;69.00
23748;DHT22;12054;53.662;10.126;2023-05-25T14:34:59;23.70;69.20
23748;DHT22;12054;53.662;10.126;2023-05-25T14:37:25;23.60;69.00
23748;DHT22;12054;53.662;10.126;2023-05-25T14:39:50;23.60;69.40
23748;DHT22;12054;53.662;10.126;2023-05-25T14:42:16;23.60;69.60
23748;DHT22;12054;53.662;10.126;2023-05-25T14:44:41;23.60;69.60
23748;DHT22;12054;53.662;10.126;2023-05-25T14:47:08;23.50;69.70
23748;DHT22;12054;53.662;10.126;2023-05-25T14:49:35;23.50;69.70
23748;DHT22;12054;53.662;10.126;2023-05-25T14:52:01;23.50;69.10
23748;DHT22;12054;53.662;10.126;2023-05-25T14:54:26;23.60;68.50
23748;DHT22;12054;53.662;10.126;2023-05-25T14:56:52;23.50;68.30
23748;DHT22;12054;53.662;10.126;2023-05-25T14:59:18;23.40;68.30
23748;DHT22;12054;53.662;10.126;2023-05-25T15:01:43;23.30;67.90
23748;DHT22;12054;53.662;10.126;2023-05-25T15:04:10;23.10;68.20
23748;DHT22;12054;53.662;10.126;2023-05-25T15:06:37;23.00;68.30
23748;DHT22;12054;53.662;10.126;2023-05-25T15:09:04;22.90;68.30
23748;DHT22;12054;53.662;10.126;2023-05-25T15:11:31;22.90;68.30
23748;DHT22;12054;53.662;10.126;2023-05-25T15:13:56;22.90;68.80
23748;DHT22;12054;53.662;10.126;2023-05-25T15:16:23;22.90;69.00
23748;DHT22;12054;53.662;10.126;2023-05-25T15:18:49;22.90;68.60
23748;DHT22;12054;53.662;10.126;2023-05-25T15:21:15;22.80;68.90
23748;DHT22;12054;53.662;10.126;2023-05-25T15:23:41;22.80;69.00
23748;DHT22;12054;53.662;10.126;2023-05-25T15:26:10;22.70;68.80
23748;DHT22;12054;53.662;10.126;2023-05-25T15:28:36;22.70;68.20
23748;DHT22;12054;53.662;10.126;2023-05-25T15:31:02;22.70;68.30
23748;DHT22;12054;53.662;10.126;2023-05-25T15:33:28;22.60;68.20
23748;DHT22;12054;53.662;10.126;2023-05-25T15:35:54;22.60;68.40
23748;DHT22;12054;53.662;10.126;2023-05-25T15:38:22;22.50;68.10
23748;DHT22;12054;53.662;10.126;2023-05-25T15:40:49;22.50;67.90
23748;DHT22;12054;53.662;10.126;2023-05-25T15:43:14;22.50;68.00